sensor_id;sensor_type;location;lat;lon;timestamp;P1;durP1;ratioP1;P2;durP2;ratioP2
76357;SDS011;65185;21.060;105.826;2023-03-01T00:01:05;114.45;;;56.13;;
76357;SDS011;65185;21.060;105.826;2023-03-01T00:03:37;116.57;;;57.63;;
76357;SDS011;65185;21.060;105.826;2023-03-01T00:06:04;118.90;;;57.10;;
76357;SDS011;65185;21.060;105.826;2023-03-01T00:08:32;129.30;;;59.38;;
76357;SDS011;65185;21.060;105.826;2023-03-01T00:11:03;124.03;;;58.70;;
76357;SDS011;65185;21.060;105.826;2023-03-01T00:13:35;121.38;;;57.75;;
76357;SDS011;65185;21.060;105.826;2023-03-01T00:16:03;122.55;;;58.70;;
76357;SDS011;65185;21.060;105.826;2023-03-01T00:18:31;119.63;;;56.90;;
76357;SDS011;65185;21.060;105.826;2023-03-01T00:20:58;116.72;;;56.47;;
76357;SDS011;65185;21.060;105.826;2023-03-01T00:23:25;132.00;;;64.80;;
76357;SDS011;65185;21.060;105.826;2023-03-01T00:25:53;138.02;;;69.13;;
76357;SDS011;65185;21.060;105.826;2023-03-01T00:28:20;136.85;;;64.35;;
76357;SDS011;65185;21.060;105.826;2023-03-01T00:30:47;116.28;;;58.50;;
76357;SDS011;65185;21.060;105.826;2023-03-01T00:33:14;112.32;;;54.17;;
76357;SDS011;65185;21.060;105.826;2023-03-01T00:35:40;118.47;;;54.58;;
76357;SDS011;65185;21.060;105.826;2023-03-01T00:38:07;119.97;;;53.08;;
76357;SDS011;65185;21.060;105.826;2023-03-01T00:40:34;110.88;;;51.97;;
76357;SDS011;65185;21.060;105.826;2023-03-01T00:43:02;108.50;;;51.63;;
76357;SDS011;65185;21.060;105.826;2023-03-01T00:45:29;115.75;;;52.30;;
76357;SDS011;65185;21.060;105.826;2023-03-01T00:47:59;104.45;;;50.90;;
76357;SDS011;65185;21.060;105.826;2023-03-01T00:50:26;107.38;;;50.20;;
76357;SDS011;65185;21.060;105.826;2023-03-01T00:52:55;115.07;;;54.60;;
76357;SDS011;65185;21.060;105.826;2023-03-01T00:55:22;125.70;;;56.55;;
76357;SDS011;65185;21.060;105.826;2023-03-01T00:57:49;115.22;;;54.60;;
76357;SDS011;65185;21.060;105.826;2023-03-01T01:00:17;112.82;;;53.78;;
76357;SDS011;65185;21.060;105.826;2023-03-01T01:02:44;110.97;;;51.67;;
76357;SDS011;65185;21.060;105.826;2023-03-01T01:05:11;111.70;;;52.67;;
76357;SDS011;65185;21.060;105.826;2023-03-01T01:07:38;110.22;;;52.97;;
76357;SDS011;65185;21.060;105.826;2023-03-01T01:10:05;113.00;;;57.15;;
76357;SDS011;65185;21.060;105.826;2023-03-01T01:12:33;122.28;;;56.40;;
76357;SDS011;65185;21.060;105.826;2023-03-01T01:14:59;127.22;;;58.72;;
76357;SDS011;65185;21.060;105.826;2023-03-01T01:17:30;124.03;;;55.90;;
76357;SDS011;65185;21.060;105.826;2023-03-01T01:19:58;122.18;;;59.55;;
76357;SDS011;65185;21.060;105.826;2023-03-01T01:22:24;125.32;;;59.22;;
76357;SDS011;65185;21.060;105.826;2023-03-01T01:24:51;121.05;;;59.35;;
76357;SDS011;65185;21.060;105.826;2023-03-01T01:27:18;120.03;;;58.33;;
76357;SDS011;65185;21.060;105.826;2023-03-01T01:29:44;120.15;;;59.60;;
76357;SDS011;65185;21.060;105.826;2023-03-01T01:32:11;138.25;;;61.88;;
76357;SDS011;65185;21.060;105.826;2023-03-01T01:34:38;116.68;;;58.30;;
76357;SDS011;65185;21.060;105.826;2023-03-01T01:37:05;116.75;;;58.30;;
76357;SDS011;65185;21.060;105.826;2023-03-01T01:39:34;118.43;;;55.75;;
76357;SDS011;65185;21.060;105.826;2023-03-01T01:42:01;114.28;;;56.28;;
76357;SDS011;65185;21.060;105.826;2023-03-01T01:44:28;101.72;;;50.88;;
76357;SDS011;65185;21.060;105.826;2023-03-01T01:46:57;105.60;;;53.05;;
76357;SDS011;65185;21.060;105.826;2023-03-01T01:52:17;117.93;;;57.72;;
76357;SDS011;65185;21.060;105.826;2023-03-01T01:57:38;120.40;;;61.03;;
76357;SDS011;65185;21.060;105.826;2023-03-01T02:00:20;114.32;;;60.13;;
76357;SDS011;65185;21.060;105.826;2023-03-01T02:02:50;119.00;;;57.70;;
76357;SDS011;65185;21.060;105.826;2023-03-01T02:07:57;116.25;;;56.13;;
76357;SDS011;65185;21.060;105.826;2023-03-01T02:10:25;114.75;;;55.78;;
76357;SDS011;65185;21.060;105.826;2023-03-01T02:12:53;123.90;;;60.08;;
76357;SDS011;65185;21.060;105.826;2023-03-01T02:15:22;120.97;;;58.65;;
76357;SDS011;65185;21.060;105.826;2023-03-01T02:17:49;128.18;;;65.10;;
76357;SDS011;65185;21.060;105.826;2023-03-01T02:22:53;128.65;;;63.97;;
76357;SDS011;65185;21.060;105.826;2023-03-01T02:29:00;149.27;;;73.45;;
76357;SDS011;65185;21.060;105.826;2023-03-01T02:30:59;143.82;;;75.65;;
76357;SDS011;65185;21.060;105.826;2023-03-01T02:33:45;138.55;;;74.05;;
76357;SDS011;65185;21.060;105.826;2023-03-01T02:36:15;153.50;;;78.85;;
76357;SDS011;65185;21.060;105.826;2023-03-01T02:38:46;136.75;;;73.60;;
76357;SDS011;65185;21.060;105.826;2023-03-01T02:41:16;131.57;;;68.70;;
76357;SDS011;65185;21.060;105.826;2023-03-01T02:43:45;122.47;;;68.13;;
76357;SDS011;65185;21.060;105.826;2023-03-01T02:46:16;126.38;;;70.07;;
76357;SDS011;65185;21.060;105.826;2023-03-01T02:48:53;129.55;;;70.45;;
76357;SDS011;65185;21.060;105.826;2023-03-01T02:54:16;141.63;;;72.15;;
76357;SDS011;65185;21.060;105.826;2023-03-01T02:56:50;120.65;;;63.30;;
76357;SDS011;65185;21.060;105.826;2023-03-01T02:59:21;113.40;;;58.47;;
76357;SDS011;65185;21.060;105.826;2023-03-01T03:01:55;115.53;;;59.35;;
76357;SDS011;65185;21.060;105.826;2023-03-01T03:04:22;114.65;;;59.15;;
76357;SDS011;65185;21.060;105.826;2023-03-01T03:06:49;114.47;;;58.53;;
76357;SDS011;65185;21.060;105.826;2023-03-01T03:09:17;113.22;;;58.17;;
76357;SDS011;65185;21.060;105.826;2023-03-01T03:11:44;99.35;;;54.00;;
76357;SDS011;65185;21.060;105.826;2023-03-01T03:14:12;117.90;;;59.38;;
76357;SDS011;65185;21.060;105.826;2023-03-01T03:16:41;97.63;;;53.13;;
76357;SDS011;65185;21.060;105.826;2023-03-01T03:19:12;106.03;;;55.65;;
76357;SDS011;65185;21.060;105.826;2023-03-01T03:21:40;104.72;;;55.85;;
76357;SDS011;65185;21.060;105.826;2023-03-01T03:24:07;119.82;;;62.35;;
76357;SDS011;65185;21.060;105.826;2023-03-01T03:26:33;119.38;;;63.70;;
76357;SDS011;65185;21.060;105.826;2023-03-01T03:29:00;122.07;;;60.83;;
76357;SDS011;65185;21.060;105.826;2023-03-01T03:31:27;119.32;;;61.33;;
76357;SDS011;65185;21.060;105.826;2023-03-01T03:33:54;125.95;;;64.45;;
76357;SDS011;65185;21.060;105.826;2023-03-01T03:36:22;121.85;;;62.90;;
76357;SDS011;65185;21.060;105.826;2023-03-01T03:38:51;119.30;;;60.88;;
76357;SDS011;65185;21.060;105.826;2023-03-01T03:41:18;120.45;;;60.63;;
76357;SDS011;65185;21.060;105.826;2023-03-01T03:43:44;117.00;;;62.78;;
76357;SDS011;65185;21.060;105.826;2023-03-01T03:46:11;125.03;;;64.50;;
76357;SDS011;65185;21.060;105.826;2023-03-01T03:48:42;130.57;;;64.53;;
76357;SDS011;65185;21.060;105.826;2023-03-01T03:51:11;129.38;;;62.15;;
76357;SDS011;65185;21.060;105.826;2023-03-01T03:53:39;127.40;;;60.90;;
76357;SDS011;65185;21.060;105.826;2023-03-01T03:56:07;120.50;;;60.03;;
76357;SDS011;65185;21.060;105.826;2023-03-01T03:58:34;118.57;;;56.25;;
76357;SDS011;65185;21.060;105.826;2023-03-01T04:01:02;124.38;;;58.58;;
76357;SDS011;65185;21.060;105.826;2023-03-01T04:03:29;129.55;;;60.78;;
76357;SDS011;65185;21.060;105.826;2023-03-01T04:05:58;115.60;;;55.20;;
76357;SDS011;65185;21.060;105.826;2023-03-01T04:08:26;116.72;;;54.97;;
76357;SDS011;65185;21.060;105.826;2023-03-01T04:10:58;122.03;;;55.30;;
76357;SDS011;65185;21.060;105.826;2023-03-01T04:13:46;130.85;;;57.55;;
76357;SDS011;65185;21.060;105.826;2023-03-01T04:16:13;122.97;;;56.80;;
76357;SDS011;65185;21.060;105.826;2023-03-01T04:18:40;126.13;;;56.92;;
76357;SDS011;65185;21.060;105.826;2023-03-01T04:21:07;118.32;;;56.10;;
76357;SDS011;65185;21.060;105.826;2023-03-01T04:23:34;113.35;;;55.30;;
76357;SDS011;65185;21.060;105.826;2023-03-01T04:26:01;111.88;;;55.63;;
76357;SDS011;65185;21.060;105.826;2023-03-01T04:28:30;106.38;;;52.13;;
76357;SDS011;65185;21.060;105.826;2023-03-01T04:31:03;119.85;;;56.50;;
76357;SDS011;65185;21.060;105.826;2023-03-01T04:33:45;114.85;;;56.50;;
76357;SDS011;65185;21.060;105.826;2023-03-01T04:36:14;106.82;;;51.72;;
76357;SDS011;65185;21.060;105.826;2023-03-01T04:38:43;104.50;;;52.55;;
76357;SDS011;65185;21.060;105.826;2023-03-01T04:41:13;101.90;;;52.22;;
76357;SDS011;65185;21.060;105.826;2023-03-01T04:43:42;98.80;;;49.95;;
76357;SDS011;65185;21.060;105.826;2023-03-01T04:46:10;96.50;;;48.92;;
76357;SDS011;65185;21.060;105.826;2023-03-01T04:48:39;105.47;;;52.38;;
76357;SDS011;65185;21.060;105.826;2023-03-01T04:51:07;106.00;;;53.05;;
76357;SDS011;65185;21.060;105.826;2023-03-01T04:53:34;117.47;;;58.67;;
76357;SDS011;65185;21.060;105.826;2023-03-01T04:56:04;110.03;;;56.17;;
76357;SDS011;65185;21.060;105.826;2023-03-01T04:58:32;127.93;;;60.55;;
76357;SDS011;65185;21.060;105.826;2023-03-01T05:00:58;114.30;;;56.20;;
76357;SDS011;65185;21.060;105.826;2023-03-01T05:03:25;123.13;;;60.08;;
76357;SDS011;65185;21.060;105.826;2023-03-01T05:05:53;119.43;;;59.15;;
76357;SDS011;65185;21.060;105.826;2023-03-01T05:08:25;109.63;;;54.47;;
76357;SDS011;65185;21.060;105.826;2023-03-01T05:10:52;133.70;;;62.72;;
76357;SDS011;65185;21.060;105.826;2023-03-01T05:13:20;133.18;;;65.18;;
76357;SDS011;65185;21.060;105.826;2023-03-01T05:15:48;142.60;;;68.25;;
76357;SDS011;65185;21.060;105.826;2023-03-01T05:18:22;128.85;;;62.30;;
76357;SDS011;65185;21.060;105.826;2023-03-01T05:21:00;114.38;;;58.88;;
76357;SDS011;65185;21.060;105.826;2023-03-01T05:23:30;126.13;;;62.90;;
76357;SDS011;65185;21.060;105.826;2023-03-01T05:25:58;111.63;;;59.45;;
76357;SDS011;65185;21.060;105.826;2023-03-01T05:28:26;109.22;;;56.70;;
76357;SDS011;65185;21.060;105.826;2023-03-01T05:30:56;119.25;;;61.42;;
76357;SDS011;65185;21.060;105.826;2023-03-01T05:33:24;125.10;;;64.35;;
76357;SDS011;65185;21.060;105.826;2023-03-01T05:35:51;128.57;;;64.07;;
76357;SDS011;65185;21.060;105.826;2023-03-01T05:38:19;118.30;;;60.15;;
76357;SDS011;65185;21.060;105.826;2023-03-01T05:40:47;118.80;;;61.95;;
76357;SDS011;65185;21.060;105.826;2023-03-01T05:43:23;108.57;;;58.75;;
76357;SDS011;65185;21.060;105.826;2023-03-01T05:45:50;125.32;;;63.08;;
76357;SDS011;65185;21.060;105.826;2023-03-01T05:48:17;119.55;;;62.97;;
76357;SDS011;65185;21.060;105.826;2023-03-01T05:50:45;106.50;;;56.85;;
76357;SDS011;65185;21.060;105.826;2023-03-01T05:53:14;109.97;;;58.00;;
76357;SDS011;65185;21.060;105.826;2023-03-01T05:55:42;101.30;;;54.25;;
76357;SDS011;65185;21.060;105.826;2023-03-01T05:58:12;99.60;;;53.78;;
76357;SDS011;65185;21.060;105.826;2023-03-01T06:00:42;96.10;;;52.97;;
76357;SDS011;65185;21.060;105.826;2023-03-01T06:03:11;103.90;;;52.60;;
76357;SDS011;65185;21.060;105.826;2023-03-01T06:05:39;102.80;;;53.20;;
76357;SDS011;65185;21.060;105.826;2023-03-01T06:08:06;100.88;;;54.20;;
76357;SDS011;65185;21.060;105.826;2023-03-01T06:10:35;98.68;;;52.08;;
76357;SDS011;65185;21.060;105.826;2023-03-01T06:13:01;103.68;;;54.08;;
76357;SDS011;65185;21.060;105.826;2023-03-01T06:15:28;110.78;;;56.22;;
76357;SDS011;65185;21.060;105.826;2023-03-01T06:17:55;100.00;;;51.92;;
76357;SDS011;65185;21.060;105.826;2023-03-01T06:20:23;103.93;;;55.78;;
76357;SDS011;65185;21.060;105.826;2023-03-01T06:22:52;94.00;;;49.03;;
76357;SDS011;65185;21.060;105.826;2023-03-01T06:25:20;98.75;;;50.33;;
76357;SDS011;65185;21.060;105.826;2023-03-01T06:27:49;92.50;;;48.25;;
76357;SDS011;65185;21.060;105.826;2023-03-01T06:30:18;92.68;;;50.22;;
76357;SDS011;65185;21.060;105.826;2023-03-01T06:32:46;95.85;;;49.60;;
76357;SDS011;65185;21.060;105.826;2023-03-01T06:35:14;96.22;;;50.95;;
76357;SDS011;65185;21.060;105.826;2023-03-01T06:37:46;91.97;;;49.67;;
76357;SDS011;65185;21.060;105.826;2023-03-01T06:40:13;95.50;;;49.72;;
76357;SDS011;65185;21.060;105.826;2023-03-01T06:42:41;94.78;;;50.30;;
76357;SDS011;65185;21.060;105.826;2023-03-01T06:45:09;102.45;;;54.17;;
76357;SDS011;65185;21.060;105.826;2023-03-01T06:47:37;97.10;;;50.90;;
76357;SDS011;65185;21.060;105.826;2023-03-01T06:50:03;94.72;;;48.88;;
76357;SDS011;65185;21.060;105.826;2023-03-01T06:52:31;97.05;;;51.42;;
76357;SDS011;65185;21.060;105.826;2023-03-01T06:54:58;95.05;;;49.42;;
76357;SDS011;65185;21.060;105.826;2023-03-01T06:57:25;97.68;;;51.55;;
76357;SDS011;65185;21.060;105.826;2023-03-01T06:59:52;89.55;;;48.75;;
76357;SDS011;65185;21.060;105.826;2023-03-01T07:02:19;87.50;;;46.85;;
76357;SDS011;65185;21.060;105.826;2023-03-01T07:04:45;96.80;;;50.97;;
76357;SDS011;65185;21.060;105.826;2023-03-01T07:07:12;97.00;;;51.22;;
76357;SDS011;65185;21.060;105.826;2023-03-01T07:09:39;90.82;;;48.25;;
76357;SDS011;65185;21.060;105.826;2023-03-01T07:12:06;90.60;;;49.03;;
76357;SDS011;65185;21.060;105.826;2023-03-01T07:14:36;90.68;;;49.72;;
76357;SDS011;65185;21.060;105.826;2023-03-01T07:17:03;84.78;;;45.72;;
76357;SDS011;65185;21.060;105.826;2023-03-01T07:19:30;88.57;;;48.20;;
76357;SDS011;65185;21.060;105.826;2023-03-01T07:21:57;92.32;;;48.97;;
76357;SDS011;65185;21.060;105.826;2023-03-01T07:24:23;95.00;;;49.80;;
76357;SDS011;65185;21.060;105.826;2023-03-01T07:26:51;92.07;;;52.10;;
76357;SDS011;65185;21.060;105.826;2023-03-01T07:29:19;96.30;;;54.28;;
76357;SDS011;65185;21.060;105.826;2023-03-01T07:31:45;104.45;;;55.67;;
76357;SDS011;65185;21.060;105.826;2023-03-01T07:34:15;102.32;;;55.28;;
76357;SDS011;65185;21.060;105.826;2023-03-01T07:36:47;86.32;;;49.55;;
76357;SDS011;65185;21.060;105.826;2023-03-01T07:39:15;90.57;;;50.75;;
76357;SDS011;65185;21.060;105.826;2023-03-01T07:41:41;96.22;;;53.88;;
76357;SDS011;65185;21.060;105.826;2023-03-01T07:44:08;101.22;;;57.92;;
76357;SDS011;65185;21.060;105.826;2023-03-01T07:46:35;95.90;;;53.30;;
76357;SDS011;65185;21.060;105.826;2023-03-01T07:49:01;97.82;;;55.58;;
76357;SDS011;65185;21.060;105.826;2023-03-01T07:51:29;107.55;;;58.50;;
76357;SDS011;65185;21.060;105.826;2023-03-01T07:53:56;98.05;;;54.78;;
76357;SDS011;65185;21.060;105.826;2023-03-01T07:56:23;116.78;;;62.63;;
76357;SDS011;65185;21.060;105.826;2023-03-01T07:58:50;96.72;;;53.78;;
76357;SDS011;65185;21.060;105.826;2023-03-01T08:01:20;96.40;;;53.05;;
76357;SDS011;65185;21.060;105.826;2023-03-01T08:03:47;91.40;;;46.65;;
76357;SDS011;65185;21.060;105.826;2023-03-01T08:06:15;76.40;;;40.45;;
76357;SDS011;65185;21.060;105.826;2023-03-01T08:08:43;71.35;;;38.97;;
76357;SDS011;65185;21.060;105.826;2023-03-01T08:11:11;69.88;;;37.50;;
76357;SDS011;65185;21.060;105.826;2023-03-01T08:13:38;63.15;;;34.38;;
76357;SDS011;65185;21.060;105.826;2023-03-01T08:16:12;68.30;;;32.08;;
76357;SDS011;65185;21.060;105.826;2023-03-01T08:18:40;60.13;;;32.67;;
76357;SDS011;65185;21.060;105.826;2023-03-01T08:21:09;53.83;;;29.00;;
76357;SDS011;65185;21.060;105.826;2023-03-01T08:23:40;47.03;;;25.60;;
76357;SDS011;65185;21.060;105.826;2023-03-01T08:26:12;48.53;;;24.05;;
76357;SDS011;65185;21.060;105.826;2023-03-01T08:28:44;38.53;;;20.77;;
76357;SDS011;65185;21.060;105.826;2023-03-01T08:33:42;42.42;;;21.08;;
76357;SDS011;65185;21.060;105.826;2023-03-01T08:36:09;46.45;;;23.40;;
76357;SDS011;65185;21.060;105.826;2023-03-01T08:38:36;44.35;;;22.73;;
76357;SDS011;65185;21.060;105.826;2023-03-01T08:41:03;52.83;;;23.55;;
76357;SDS011;65185;21.060;105.826;2023-03-01T08:43:30;49.58;;;23.73;;
76357;SDS011;65185;21.060;105.826;2023-03-01T08:45:57;46.72;;;23.33;;
76357;SDS011;65185;21.060;105.826;2023-03-01T08:48:24;38.30;;;22.48;;
76357;SDS011;65185;21.060;105.826;2023-03-01T08:50:51;47.92;;;23.17;;
76357;SDS011;65185;21.060;105.826;2023-03-01T08:53:17;49.65;;;24.95;;
76357;SDS011;65185;21.060;105.826;2023-03-01T08:55:44;44.47;;;24.48;;
76357;SDS011;65185;21.060;105.826;2023-03-01T08:58:11;44.33;;;22.83;;
76357;SDS011;65185;21.060;105.826;2023-03-01T09:00:38;48.35;;;25.05;;
76357;SDS011;65185;21.060;105.826;2023-03-01T09:03:05;40.05;;;21.60;;
76357;SDS011;65185;21.060;105.826;2023-03-01T09:05:32;46.45;;;24.17;;
76357;SDS011;65185;21.060;105.826;2023-03-01T09:08:01;44.03;;;23.38;;
76357;SDS011;65185;21.060;105.826;2023-03-01T09:10:28;43.13;;;23.52;;
76357;SDS011;65185;21.060;105.826;2023-03-01T09:12:55;41.50;;;22.33;;
76357;SDS011;65185;21.060;105.826;2023-03-01T09:15:22;37.45;;;20.98;;
76357;SDS011;65185;21.060;105.826;2023-03-01T09:17:48;37.92;;;22.60;;
76357;SDS011;65185;21.060;105.826;2023-03-01T09:20:15;41.60;;;22.13;;
76357;SDS011;65185;21.060;105.826;2023-03-01T09:22:42;40.08;;;23.20;;
76357;SDS011;65185;21.060;105.826;2023-03-01T09:25:09;48.72;;;26.60;;
76357;SDS011;65185;21.060;105.826;2023-03-01T09:27:36;44.17;;;23.88;;
76357;SDS011;65185;21.060;105.826;2023-03-01T09:30:02;48.22;;;26.27;;
76357;SDS011;65185;21.060;105.826;2023-03-01T09:32:30;48.25;;;25.98;;
76357;SDS011;65185;21.060;105.826;2023-03-01T09:34:57;47.40;;;25.35;;
76357;SDS011;65185;21.060;105.826;2023-03-01T09:37:29;43.35;;;24.90;;
76357;SDS011;65185;21.060;105.826;2023-03-01T09:39:56;46.05;;;25.42;;
76357;SDS011;65185;21.060;105.826;2023-03-01T09:42:23;43.05;;;25.30;;
76357;SDS011;65185;21.060;105.826;2023-03-01T09:44:52;43.53;;;24.55;;
76357;SDS011;65185;21.060;105.826;2023-03-01T09:47:25;43.67;;;23.50;;
76357;SDS011;65185;21.060;105.826;2023-03-01T09:50:00;40.22;;;24.27;;
76357;SDS011;65185;21.060;105.826;2023-03-01T09:53:02;47.72;;;24.63;;
76357;SDS011;65185;21.060;105.826;2023-03-01T10:00:47;44.05;;;24.45;;
76357;SDS011;65185;21.060;105.826;2023-03-01T10:03:26;44.20;;;25.05;;
76357;SDS011;65185;21.060;105.826;2023-03-01T10:08:28;46.38;;;25.75;;
76357;SDS011;65185;21.060;105.826;2023-03-01T10:11:02;40.40;;;23.38;;
76357;SDS011;65185;21.060;105.826;2023-03-01T10:13:38;43.13;;;24.70;;
76357;SDS011;65185;21.060;105.826;2023-03-01T10:16:21;47.22;;;26.20;;
76357;SDS011;65185;21.060;105.826;2023-03-01T10:19:08;51.30;;;29.80;;
76357;SDS011;65185;21.060;105.826;2023-03-01T10:24:17;57.97;;;29.90;;
76357;SDS011;65185;21.060;105.826;2023-03-01T10:26:56;55.95;;;30.92;;
76357;SDS011;65185;21.060;105.826;2023-03-01T10:29:35;62.55;;;34.40;;
76357;SDS011;65185;21.060;105.826;2023-03-01T10:32:24;59.13;;;34.28;;
76357;SDS011;65185;21.060;105.826;2023-03-01T10:34:51;58.95;;;34.42;;
76357;SDS011;65185;21.060;105.826;2023-03-01T10:37:19;54.42;;;34.03;;
76357;SDS011;65185;21.060;105.826;2023-03-01T10:40:09;61.88;;;36.30;;
76357;SDS011;65185;21.060;105.826;2023-03-01T10:42:39;62.50;;;35.45;;
76357;SDS011;65185;21.060;105.826;2023-03-01T10:45:16;63.20;;;35.95;;
76357;SDS011;65185;21.060;105.826;2023-03-01T10:51:04;72.40;;;42.40;;
76357;SDS011;65185;21.060;105.826;2023-03-01T10:56:01;95.40;;;51.38;;
76357;SDS011;65185;21.060;105.826;2023-03-01T10:58:34;107.68;;;59.38;;
76357;SDS011;65185;21.060;105.826;2023-03-01T11:01:06;106.95;;;59.53;;
76357;SDS011;65185;21.060;105.826;2023-03-01T11:04:10;99.60;;;59.05;;
76357;SDS011;65185;21.060;105.826;2023-03-01T11:06:39;103.25;;;58.88;;
76357;SDS011;65185;21.060;105.826;2023-03-01T11:11:41;125.57;;;76.63;;
76357;SDS011;65185;21.060;105.826;2023-03-01T11:14:15;131.60;;;77.80;;
76357;SDS011;65185;21.060;105.826;2023-03-01T11:16:45;130.57;;;79.80;;
76357;SDS011;65185;21.060;105.826;2023-03-01T11:19:20;130.45;;;78.28;;
76357;SDS011;65185;21.060;105.826;2023-03-01T11:24:56;131.43;;;75.72;;
76357;SDS011;65185;21.060;105.826;2023-03-01T11:30:12;136.45;;;79.30;;
76357;SDS011;65185;21.060;105.826;2023-03-01T11:36:07;136.52;;;78.90;;
76357;SDS011;65185;21.060;105.826;2023-03-01T11:38:55;141.43;;;81.10;;
76357;SDS011;65185;21.060;105.826;2023-03-01T11:41:34;134.20;;;80.50;;
76357;SDS011;65185;21.060;105.826;2023-03-01T11:50:07;143.80;;;81.60;;
76357;SDS011;65185;21.060;105.826;2023-03-01T11:53:02;150.32;;;85.57;;
76357;SDS011;65185;21.060;105.826;2023-03-01T12:10:28;164.63;;;93.45;;
76357;SDS011;65185;21.060;105.826;2023-03-01T12:13:43;161.10;;;90.95;;
76357;SDS011;65185;21.060;105.826;2023-03-01T12:19:27;187.63;;;100.35;;
76357;SDS011;65185;21.060;105.826;2023-03-01T12:22:31;175.02;;;95.68;;
76357;SDS011;65185;21.060;105.826;2023-03-01T12:25:13;190.00;;;101.55;;
76357;SDS011;65185;21.060;105.826;2023-03-01T12:27:50;201.27;;;108.32;;
76357;SDS011;65185;21.060;105.826;2023-03-01T12:41:42;164.70;;;95.38;;
76357;SDS011;65185;21.060;105.826;2023-03-01T12:44:30;164.30;;;94.07;;
76357;SDS011;65185;21.060;105.826;2023-03-01T12:47:26;166.20;;;96.18;;
76357;SDS011;65185;21.060;105.826;2023-03-01T12:50:21;172.40;;;97.90;;
76357;SDS011;65185;21.060;105.826;2023-03-01T12:52:57;157.75;;;93.85;;
76357;SDS011;65185;21.060;105.826;2023-03-01T12:58:01;161.13;;;95.82;;
76357;SDS011;65185;21.060;105.826;2023-03-01T13:03:31;165.90;;;96.65;;
76357;SDS011;65185;21.060;105.826;2023-03-01T13:09:13;158.80;;;94.82;;
76357;SDS011;65185;21.060;105.826;2023-03-01T13:11:56;191.68;;;108.70;;
76357;SDS011;65185;21.060;105.826;2023-03-01T13:17:01;172.85;;;100.07;;
76357;SDS011;65185;21.060;105.826;2023-03-01T13:19:28;194.85;;;110.57;;
76357;SDS011;65185;21.060;105.826;2023-03-01T13:21:57;184.82;;;106.40;;
76357;SDS011;65185;21.060;105.826;2023-03-01T13:29:46;182.00;;;104.32;;
76357;SDS011;65185;21.060;105.826;2023-03-01T13:32:32;168.40;;;100.72;;
76357;SDS011;65185;21.060;105.826;2023-03-01T13:35:40;161.27;;;98.15;;
76357;SDS011;65185;21.060;105.826;2023-03-01T13:43:27;167.32;;;96.78;;
76357;SDS011;65185;21.060;105.826;2023-03-01T13:45:57;160.75;;;96.32;;
76357;SDS011;65185;21.060;105.826;2023-03-01T13:48:26;154.98;;;91.50;;
76357;SDS011;65185;21.060;105.826;2023-03-01T13:51:02;168.90;;;97.40;;
76357;SDS011;65185;21.060;105.826;2023-03-01T13:53:32;162.55;;;95.00;;
76357;SDS011;65185;21.060;105.826;2023-03-01T13:56:06;159.95;;;93.72;;
76357;SDS011;65185;21.060;105.826;2023-03-01T13:58:55;168.95;;;97.88;;
76357;SDS011;65185;21.060;105.826;2023-03-01T14:04:22;163.60;;;94.82;;
76357;SDS011;65185;21.060;105.826;2023-03-01T14:06:52;171.15;;;96.80;;
76357;SDS011;65185;21.060;105.826;2023-03-01T14:09:42;176.30;;;101.55;;
76357;SDS011;65185;21.060;105.826;2023-03-01T14:17:21;175.52;;;96.50;;
76357;SDS011;65185;21.060;105.826;2023-03-01T14:19:55;177.27;;;96.70;;
76357;SDS011;65185;21.060;105.826;2023-03-01T14:22:27;162.98;;;93.10;;
76357;SDS011;65185;21.060;105.826;2023-03-01T14:24:58;172.13;;;94.72;;
76357;SDS011;65185;21.060;105.826;2023-03-01T14:27:50;172.40;;;95.22;;
76357;SDS011;65185;21.060;105.826;2023-03-01T14:30:33;178.35;;;95.18;;
76357;SDS011;65185;21.060;105.826;2023-03-01T14:33:17;170.82;;;93.82;;
76357;SDS011;65185;21.060;105.826;2023-03-01T14:35:56;169.32;;;93.57;;
76357;SDS011;65185;21.060;105.826;2023-03-01T14:38:34;180.98;;;97.55;;
76357;SDS011;65185;21.060;105.826;2023-03-01T14:41:08;182.55;;;96.93;;
76357;SDS011;65185;21.060;105.826;2023-03-01T14:43:41;188.48;;;101.18;;
76357;SDS011;65185;21.060;105.826;2023-03-01T14:46:57;177.57;;;97.53;;
76357;SDS011;65185;21.060;105.826;2023-03-01T14:49:04;182.07;;;98.45;;
76357;SDS011;65185;21.060;105.826;2023-03-01T14:51:35;177.27;;;95.13;;
76357;SDS011;65185;21.060;105.826;2023-03-01T14:54:18;170.43;;;95.35;;
76357;SDS011;65185;21.060;105.826;2023-03-01T14:56:46;178.18;;;96.20;;
76357;SDS011;65185;21.060;105.826;2023-03-01T14:59:13;174.60;;;97.00;;
76357;SDS011;65185;21.060;105.826;2023-03-01T15:01:40;182.85;;;96.35;;
76357;SDS011;65185;21.060;105.826;2023-03-01T15:04:11;184.32;;;98.28;;
76357;SDS011;65185;21.060;105.826;2023-03-01T15:06:39;180.50;;;99.03;;
76357;SDS011;65185;21.060;105.826;2023-03-01T15:09:07;179.50;;;99.93;;
76357;SDS011;65185;21.060;105.826;2023-03-01T15:11:40;177.65;;;99.15;;
76357;SDS011;65185;21.060;105.826;2023-03-01T15:17:26;185.40;;;99.60;;
76357;SDS011;65185;21.060;105.826;2023-03-01T15:19:56;172.80;;;96.03;;
76357;SDS011;65185;21.060;105.826;2023-03-01T15:22:24;176.45;;;98.57;;
76357;SDS011;65185;21.060;105.826;2023-03-01T15:24:52;182.95;;;99.72;;
76357;SDS011;65185;21.060;105.826;2023-03-01T15:27:21;179.48;;;100.40;;
76357;SDS011;65185;21.060;105.826;2023-03-01T15:29:52;176.45;;;99.60;;
76357;SDS011;65185;21.060;105.826;2023-03-01T15:32:32;179.80;;;97.65;;
76357;SDS011;65185;21.060;105.826;2023-03-01T15:38:26;172.10;;;96.22;;
76357;SDS011;65185;21.060;105.826;2023-03-01T15:40:53;171.40;;;94.93;;
76357;SDS011;65185;21.060;105.826;2023-03-01T15:43:37;185.38;;;102.68;;
76357;SDS011;65185;21.060;105.826;2023-03-01T15:46:24;178.68;;;98.97;;
76357;SDS011;65185;21.060;105.826;2023-03-01T15:49:01;186.43;;;99.47;;
76357;SDS011;65185;21.060;105.826;2023-03-01T15:51:31;177.00;;;96.00;;
76357;SDS011;65185;21.060;105.826;2023-03-01T15:54:04;185.27;;;100.13;;
76357;SDS011;65185;21.060;105.826;2023-03-01T15:56:51;179.32;;;97.63;;
76357;SDS011;65185;21.060;105.826;2023-03-01T15:59:18;179.98;;;98.32;;
76357;SDS011;65185;21.060;105.826;2023-03-01T16:01:47;190.15;;;101.00;;
76357;SDS011;65185;21.060;105.826;2023-03-01T16:04:22;176.68;;;95.57;;
76357;SDS011;65185;21.060;105.826;2023-03-01T16:06:49;195.20;;;102.82;;
76357;SDS011;65185;21.060;105.826;2023-03-01T16:09:24;170.38;;;92.93;;